Terminal Aerodrome Forecast
Issued by NWS

Home | Current Version | Previous Version | Text Only | Print | Product List | Glossary On
Versions: 1 2 3 4 5 6 7 8 9 10 11 12 13 14 15 16 17 18 19 20 21 22 23 24 25 26 27 28 29 30 31
000
FTUS45 KPSR 181100
TAFIWA
TAF
KIWA 181139Z 1812/1912 12004KT P6SM SCT030 BKN050 BKN080
     FM181500 13005KT P6SM VCSH SCT030 BKN050 OVC100
     FM182000 29004KT P6SM SCT050 SCT100
     FM190400 12005KT P6SM FEW050 SCT200
      AMD LTD TO CLD VIS AND WIND TIL 181300=

USA.gov is the U.S. government's official web portal to all federal, state and local government web resources and services.